createdAt,value
2023-06-14T00:02:49.047Z,22.46
2023-06-14T00:06:51.704Z,22.45
2023-06-14T00:10:53.516Z,22.44
2023-06-14T00:14:55.273Z,22.39
2023-06-14T00:18:57.209Z,22.19
2023-06-14T00:22:58.776Z,22.02
2023-06-14T00:27:00.567Z,21.63
2023-06-14T00:31:03.993Z,21.15
2023-06-14T00:35:05.884Z,20.98
2023-06-14T00:39:07.527Z,20.81
2023-06-14T00:43:11.124Z,20.79
2023-06-14T00:47:12.731Z,20.82
2023-06-14T00:51:14.432Z,20.79
2023-06-14T00:55:16.295Z,20.90
2023-06-14T00:59:18.227Z,20.64
2023-06-14T01:03:23.362Z,20.48
2023-06-14T01:07:46.634Z,20.46
2023-06-14T01:11:56.193Z,20.31
2023-06-14T01:15:58.314Z,20.31
2023-06-14T01:20:02.248Z,20.33
2023-06-14T01:24:04.535Z,20.20
2023-06-14T01:28:12.290Z,20.12
2023-06-14T01:32:14.797Z,20.05
2023-06-14T01:36:17.349Z,20.01
2023-06-14T01:40:21.752Z,19.95
2023-06-14T01:44:24.214Z,20.01
2023-06-14T01:48:25.932Z,20.07
2023-06-14T01:52:27.487Z,20.00
2023-06-14T01:56:29.079Z,19.90
2023-06-14T02:00:30.722Z,19.85
2023-06-14T02:04:32.435Z,19.86
2023-06-14T02:08:34.010Z,19.68
2023-06-14T02:12:36.062Z,19.60
2023-06-14T02:16:38.441Z,19.62
2023-06-14T02:20:40.348Z,19.53
2023-06-14T02:24:42.879Z,19.39
2023-06-14T02:28:44.559Z,19.40
2023-06-14T02:32:46.265Z,19.45
2023-06-14T02:36:49.045Z,19.35
2023-06-14T02:40:50.656Z,19.34
2023-06-14T02:44:52.924Z,19.31
2023-06-14T02:48:56.436Z,19.31
2023-06-14T02:52:58.256Z,19.23
2023-06-14T02:57:00.256Z,19.17
2023-06-14T03:01:04.756Z,19.05
2023-06-14T03:05:08.273Z,19.02
2023-06-14T03:09:10.935Z,18.99
2023-06-14T03:13:16.960Z,18.91
2023-06-14T03:17:20.651Z,18.90
2023-06-14T03:21:22.980Z,18.89
2023-06-14T03:25:26.876Z,18.79
2023-06-14T03:29:28.623Z,18.75
2023-06-14T03:33:31.018Z,18.54
2023-06-14T03:37:32.812Z,18.44
2023-06-14T03:41:34.522Z,18.41
2023-06-14T03:45:38.205Z,18.39
2023-06-14T03:49:40.717Z,18.29
2023-06-14T03:53:58.852Z,18.11
2023-06-14T03:58:04.693Z,18.02
2023-06-14T04:02:06.792Z,17.99
2023-06-14T04:06:09.173Z,17.99
2023-06-14T04:10:11.565Z,18.04
2023-06-14T04:14:13.680Z,18.04
2023-06-14T04:18:15.452Z,17.98
2023-06-14T04:22:17.267Z,18.05
2023-06-14T04:26:20.892Z,18.07
2023-06-14T04:30:28.156Z,18.10
2023-06-14T04:34:35.240Z,18.07
2023-06-14T04:38:38.919Z,18.09
2023-06-14T04:42:41.758Z,18.13
2023-06-14T04:46:48.541Z,18.23
2023-06-14T04:50:55.223Z,18.32
2023-06-14T04:54:57.315Z,18.35
2023-06-14T04:59:00.000Z,18.41
2023-06-14T05:03:02.197Z,18.47
2023-06-14T05:07:04.745Z,18.59
2023-06-14T05:11:06.364Z,18.69
2023-06-14T05:15:09.925Z,18.76
2023-06-14T05:19:12.001Z,18.83
2023-06-14T05:23:16.463Z,18.87
2023-06-14T05:27:18.469Z,18.99
2023-06-14T05:31:20.146Z,19.05
2023-06-14T05:35:23.270Z,19.10
2023-06-14T05:39:25.223Z,19.20
2023-06-14T05:43:26.904Z,19.28
2023-06-14T05:47:29.007Z,19.42
2023-06-14T05:51:31.035Z,19.55
2023-06-14T05:55:32.792Z,19.67
2023-06-14T05:59:34.919Z,19.78
2023-06-14T06:03:36.600Z,19.89
2023-06-14T06:07:39.132Z,19.98
2023-06-14T06:12:07.909Z,20.07
2023-06-14T06:16:09.884Z,20.19
2023-06-14T06:20:13.192Z,20.30
2023-06-14T06:24:14.866Z,20.34
2023-06-14T06:28:16.614Z,20.44
2023-06-14T06:32:18.600Z,20.56
2023-06-14T06:36:21.096Z,20.61
2023-06-14T06:40:22.857Z,20.72
2023-06-14T06:44:24.445Z,20.83
2023-06-14T06:48:26.153Z,20.91
2023-06-14T06:52:27.734Z,21.01
2023-06-14T06:56:29.594Z,21.12
2023-06-14T07:00:31.192Z,21.19
2023-06-14T07:04:33.184Z,21.30
2023-06-14T07:08:35.389Z,21.42
2023-06-14T07:12:40.336Z,21.51
2023-06-14T07:16:42.280Z,21.58
2023-06-14T07:20:44.233Z,21.67
2023-06-14T07:24:45.918Z,21.77
2023-06-14T07:28:48.608Z,21.90
2023-06-14T07:32:51.073Z,21.94
2023-06-14T07:36:52.868Z,22.06
2023-06-14T07:40:54.513Z,22.17
2023-06-14T07:44:56.203Z,22.24
2023-06-14T07:48:58.167Z,22.33
2023-06-14T07:52:59.846Z,22.46
2023-06-14T07:57:02.128Z,22.57
2023-06-14T08:01:07.234Z,22.69
2023-06-14T08:05:10.751Z,22.79
2023-06-14T08:09:13.663Z,22.81
2023-06-14T08:13:15.410Z,22.88
2023-06-14T08:17:17.065Z,23.01
2023-06-14T08:21:19.092Z,23.16
2023-06-14T08:25:20.678Z,23.31
2023-06-14T08:29:22.244Z,23.41
2023-06-14T08:33:23.936Z,23.45
2023-06-14T08:37:26.117Z,23.50
2023-06-14T08:41:30.433Z,23.54
2023-06-14T08:45:32.802Z,23.67
2023-06-14T08:49:34.891Z,23.79
2023-06-14T08:53:43.251Z,23.90
2023-06-14T08:57:46.467Z,24.00
2023-06-14T09:01:59.769Z,24.04
2023-06-14T09:06:14.442Z,24.11
2023-06-14T09:10:16.840Z,24.16
2023-06-14T09:14:24.635Z,24.27
2023-06-14T09:18:36.101Z,24.34
2023-06-14T09:22:39.167Z,24.45
2023-06-14T09:26:41.353Z,24.55
2023-06-14T09:30:43.225Z,24.55
2023-06-14T09:34:46.219Z,24.64
2023-06-14T09:39:05.763Z,24.68
2023-06-14T09:43:10.793Z,24.83
2023-06-14T09:47:13.535Z,24.94
2023-06-14T09:51:17.113Z,25.04
2023-06-14T09:55:20.234Z,25.01
2023-06-14T09:59:31.961Z,25.05
2023-06-14T10:03:44.348Z,25.19
2023-06-14T10:08:09.033Z,25.35
2023-06-14T10:12:11.617Z,25.41
2023-06-14T10:16:16.381Z,25.39
2023-06-14T10:20:27.211Z,25.45
2023-06-14T10:24:36.445Z,25.59
2023-06-14T10:28:38.723Z,25.61
2023-06-14T10:33:11.144Z,25.69
2023-06-14T10:37:14.801Z,25.81
2023-06-14T10:41:17.804Z,25.97
2023-06-14T10:45:19.410Z,26.09
2023-06-14T10:49:37.535Z,26.16
2023-06-14T10:53:43.741Z,26.29
2023-06-14T10:57:59.567Z,26.34
2023-06-14T11:02:19.483Z,26.54
2023-06-14T11:06:29.546Z,26.75
2023-06-14T11:10:42.182Z,26.72
2023-06-14T11:14:47.627Z,26.81
2023-06-14T11:18:50.466Z,27.02
2023-06-14T11:22:52.542Z,27.12
2023-06-14T11:26:54.200Z,27.31
2023-06-14T11:31:05.380Z,27.30
2023-06-14T11:35:07.838Z,27.46
2023-06-14T11:39:09.783Z,27.74
2023-06-14T11:43:19.880Z,27.50
2023-06-14T11:47:23.480Z,27.61
2023-06-14T11:51:25.963Z,27.63
2023-06-14T11:55:27.631Z,27.55
2023-06-14T11:59:29.674Z,27.55
2023-06-14T12:03:31.481Z,27.69
2023-06-14T12:07:33.125Z,27.48
2023-06-14T12:11:37.188Z,27.12
2023-06-14T12:15:39.078Z,27.25
2023-06-14T12:19:44.824Z,27.71
2023-06-14T12:23:51.107Z,28.08
2023-06-14T12:27:53.110Z,27.93
2023-06-14T12:31:57.659Z,28.09
2023-06-14T12:35:59.367Z,28.60
2023-06-14T12:40:00.974Z,28.95
2023-06-14T12:44:05.261Z,29.26
2023-06-14T12:48:07.182Z,29.51
2023-06-14T12:52:08.973Z,29.99
2023-06-14T12:56:10.592Z,30.04
2023-06-14T13:00:14.263Z,30.23
2023-06-14T13:04:16.491Z,30.40
2023-06-14T13:08:18.254Z,30.32
2023-06-14T13:12:19.870Z,29.91
2023-06-14T13:16:21.563Z,30.22
2023-06-14T13:20:23.433Z,30.72
2023-06-14T13:24:25.553Z,30.44
2023-06-14T13:28:27.413Z,29.76
2023-06-14T13:32:29.501Z,29.33
2023-06-14T13:36:31.293Z,28.92
2023-06-14T13:40:32.919Z,28.72
2023-06-14T13:44:34.533Z,29.76
2023-06-14T13:48:36.129Z,30.22
2023-06-14T13:52:37.898Z,30.75
2023-06-14T13:56:43.023Z,30.96
2023-06-14T14:00:53.508Z,30.34
2023-06-14T14:05:13.034Z,29.81
2023-06-14T14:09:26.390Z,29.99
2023-06-14T14:13:28.277Z,30.90
2023-06-14T14:17:38.140Z,30.66
2023-06-14T14:21:45.701Z,30.22
2023-06-14T14:25:59.022Z,29.74
2023-06-14T14:30:03.520Z,29.44
2023-06-14T14:34:11.429Z,29.48
2023-06-14T14:42:43.305Z,31.22
2023-06-14T14:46:53.084Z,31.49
2023-06-14T14:50:54.906Z,31.78
2023-06-14T14:54:59.929Z,31.42
2023-06-14T14:59:04.829Z,30.49
2023-06-14T15:03:18.084Z,30.30
2023-06-14T15:07:28.860Z,30.26
2023-06-14T15:11:30.631Z,30.85
2023-06-14T15:15:32.436Z,31.35
2023-06-14T15:19:45.265Z,31.88
2023-06-14T15:23:47.638Z,32.06
2023-06-14T15:27:50.236Z,31.90
2023-06-14T15:31:59.254Z,32.07
2023-06-14T15:36:06.402Z,32.28
2023-06-14T15:40:08.705Z,31.46
2023-06-14T15:44:10.994Z,30.60
2023-06-14T15:48:13.076Z,30.67
2023-06-14T15:52:18.169Z,30.96
2023-06-14T15:56:27.296Z,31.32
2023-06-14T16:00:31.798Z,31.49
2023-06-14T16:04:36.818Z,31.57
2023-06-14T16:08:41.500Z,31.65
2023-06-14T16:12:46.541Z,31.98
2023-06-14T16:16:49.785Z,32.25
2023-06-14T16:20:56.040Z,32.36
2023-06-14T16:24:58.122Z,31.91
2023-06-14T16:28:59.924Z,31.69
2023-06-14T16:33:04.575Z,30.83
2023-06-14T16:37:09.523Z,30.28
2023-06-14T16:41:14.500Z,29.66
2023-06-14T16:45:17.338Z,29.89
2023-06-14T16:49:20.366Z,30.45
2023-06-14T16:53:30.608Z,30.83
2023-06-14T16:57:37.409Z,30.75
2023-06-14T17:01:44.793Z,30.61
2023-06-14T17:06:12.211Z,30.44
2023-06-14T17:10:14.320Z,30.26
2023-06-14T17:14:16.690Z,30.26
2023-06-14T17:18:19.305Z,30.15
2023-06-14T17:22:24.175Z,29.58
2023-06-14T17:26:29.181Z,29.14
2023-06-14T17:30:31.436Z,29.02
2023-06-14T17:34:33.468Z,28.77
2023-06-14T17:38:39.168Z,28.51
2023-06-14T17:42:43.920Z,28.18
2023-06-14T17:46:46.052Z,28.01
2023-06-14T17:50:49.084Z,27.87
2023-06-14T17:54:52.859Z,27.65
2023-06-14T17:59:03.815Z,27.48
2023-06-14T18:03:12.784Z,27.25
2023-06-14T18:07:17.763Z,27.09
2023-06-14T18:11:20.581Z,26.93
2023-06-14T18:15:25.514Z,26.86
2023-06-14T18:19:30.008Z,26.72
2023-06-14T18:23:32.103Z,26.60
2023-06-14T18:27:50.424Z,26.47
2023-06-14T18:31:57.964Z,26.39
2023-06-14T18:36:00.231Z,26.35
2023-06-14T18:40:03.748Z,26.31
2023-06-14T18:44:06.483Z,26.16
2023-06-14T18:48:17.339Z,26.11
2023-06-14T18:52:23.708Z,26.03
2023-06-14T18:56:31.418Z,25.97
2023-06-14T19:00:36.365Z,25.94
2023-06-14T19:04:38.210Z,25.85
2023-06-14T19:08:44.922Z,25.78
2023-06-14T19:12:46.642Z,25.72
2023-06-14T19:16:52.723Z,25.66
2023-06-14T19:20:59.947Z,25.64
2023-06-14T19:25:06.708Z,25.57
2023-06-14T19:29:11.123Z,25.46
2023-06-14T19:33:13.984Z,25.42
2023-06-14T19:37:19.075Z,25.34
2023-06-14T19:41:26.057Z,25.31
2023-06-14T19:45:27.872Z,25.27
2023-06-14T19:49:35.914Z,25.20
2023-06-14T19:53:40.450Z,25.12
2023-06-14T19:57:53.095Z,25.02
2023-06-14T20:01:59.977Z,24.93
2023-06-14T20:06:06.434Z,24.86
2023-06-14T20:10:13.119Z,24.83
2023-06-14T20:14:15.031Z,24.80
2023-06-14T20:18:21.403Z,24.71
2023-06-14T20:22:23.294Z,24.66
2023-06-14T20:26:28.629Z,24.53
2023-06-14T20:30:33.308Z,24.51
2023-06-14T20:34:36.486Z,24.49
2023-06-14T20:38:42.058Z,24.49
2023-06-14T20:42:46.918Z,24.46
2023-06-14T20:46:51.727Z,24.39
2023-06-14T20:50:58.958Z,24.31
2023-06-14T20:55:07.052Z,24.26
2023-06-14T20:59:14.375Z,24.23
2023-06-14T21:03:16.605Z,24.15
2023-06-14T21:07:18.418Z,24.06
2023-06-14T21:11:23.951Z,24.02
2023-06-14T21:15:31.670Z,23.93
2023-06-14T21:19:44.243Z,23.84
2023-06-14T21:23:46.509Z,23.81
2023-06-14T21:27:51.556Z,23.75
2023-06-14T21:32:04.859Z,23.64
2023-06-14T21:36:07.063Z,23.63
2023-06-14T21:40:09.492Z,23.50
2023-06-14T21:44:11.316Z,23.38
2023-06-14T21:48:21.020Z,23.23
2023-06-14T21:52:27.529Z,23.15
2023-06-14T21:56:31.884Z,23.03
2023-06-14T22:00:40.117Z,22.94
2023-06-14T22:04:43.178Z,22.91
2023-06-14T22:08:48.676Z,22.85
2023-06-14T22:13:00.076Z,22.79
2023-06-14T22:17:17.343Z,22.75
2023-06-14T22:21:20.644Z,22.69
2023-06-14T22:25:46.080Z,22.66
2023-06-14T22:29:58.005Z,22.63
2023-06-14T22:34:05.571Z,22.59
2023-06-14T22:38:09.540Z,22.46
2023-06-14T22:42:14.900Z,22.42
2023-06-14T22:46:25.432Z,22.39
2023-06-14T22:50:35.077Z,22.38
2023-06-14T22:54:36.929Z,22.38
2023-06-14T22:58:40.602Z,22.38
2023-06-14T23:02:47.769Z,22.31
2023-06-14T23:06:52.908Z,22.26
2023-06-14T23:10:56.155Z,22.20
2023-06-14T23:15:05.360Z,22.08
2023-06-14T23:19:10.246Z,22.02
2023-06-14T23:23:18.620Z,22.02
2023-06-14T23:27:24.887Z,22.01
2023-06-14T23:31:27.342Z,21.93
2023-06-14T23:35:33.417Z,21.86
2023-06-14T23:39:54.801Z,21.82
2023-06-14T23:44:22.546Z,21.73
2023-06-14T23:48:27.465Z,21.70
2023-06-14T23:52:35.317Z,21.66
2023-06-14T23:56:40.766Z,21.58
